sensor_id;sensor_type;location;lat;lon;timestamp;P1;durP1;ratioP1;P2;durP2;ratioP2
15218;SDS011;15623;53.986;11.676;2022-12-29T02:02:13;6.97;;;6.40;;
15218;SDS011;15623;53.986;11.676;2022-12-29T02:04:48;7.00;;;6.33;;
15218;SDS011;15623;53.986;11.676;2022-12-29T02:57:49;6.07;;;5.53;;
15218;SDS011;15623;53.986;11.676;2022-12-29T03:00:49;6.37;;;5.80;;
15218;SDS011;15623;53.986;11.676;2022-12-29T03:28:32;7.10;;;6.57;;
15218;SDS011;15623;53.986;11.676;2022-12-29T03:33:54;8.00;;;7.40;;
15218;SDS011;15623;53.986;11.676;2022-12-29T03:36:26;7.53;;;6.90;;
15218;SDS011;15623;53.986;11.676;2022-12-29T03:59:42;7.23;;;6.67;;
15218;SDS011;15623;53.986;11.676;2022-12-29T04:02:10;7.03;;;6.50;;
15218;SDS011;15623;53.986;11.676;2022-12-29T04:04:37;8.40;;;7.73;;
15218;SDS011;15623;53.986;11.676;2022-12-29T04:07:05;7.27;;;6.73;;
15218;SDS011;15623;53.986;11.676;2022-12-29T04:09:40;7.03;;;6.50;;
15218;SDS011;15623;53.986;11.676;2022-12-29T04:12:09;7.40;;;6.70;;
15218;SDS011;15623;53.986;11.676;2022-12-29T04:17:42;6.60;;;6.10;;
15218;SDS011;15623;53.986;11.676;2022-12-29T04:20:10;7.37;;;6.40;;
15218;SDS011;15623;53.986;11.676;2022-12-29T04:23:01;6.50;;;6.00;;
15218;SDS011;15623;53.986;11.676;2022-12-29T04:25:33;6.97;;;6.37;;
15218;SDS011;15623;53.986;11.676;2022-12-29T04:33:45;5.67;;;5.27;;
15218;SDS011;15623;53.986;11.676;2022-12-29T04:36:32;5.83;;;5.33;;
15218;SDS011;15623;53.986;11.676;2022-12-29T04:39:21;5.57;;;5.07;;
15218;SDS011;15623;53.986;11.676;2022-12-29T04:41:53;5.10;;;4.70;;
15218;SDS011;15623;53.986;11.676;2022-12-29T04:50:07;4.80;;;4.40;;
15218;SDS011;15623;53.986;11.676;2022-12-29T04:52:49;4.57;;;4.27;;
15218;SDS011;15623;53.986;11.676;2022-12-29T04:55:16;4.43;;;4.07;;
15218;SDS011;15623;53.986;11.676;2022-12-29T04:57:44;4.90;;;4.47;;
15218;SDS011;15623;53.986;11.676;2022-12-29T05:00:17;4.30;;;3.97;;
15218;SDS011;15623;53.986;11.676;2022-12-29T05:02:45;4.47;;;4.07;;
15218;SDS011;15623;53.986;11.676;2022-12-29T05:05:18;4.10;;;3.80;;
15218;SDS011;15623;53.986;11.676;2022-12-29T05:10:21;5.13;;;3.80;;
15218;SDS011;15623;53.986;11.676;2022-12-29T05:16:45;4.33;;;3.33;;
15218;SDS011;15623;53.986;11.676;2022-12-29T05:19:13;4.13;;;3.53;;
15218;SDS011;15623;53.986;11.676;2022-12-29T06:00:23;2.73;;;2.60;;
15218;SDS011;15623;53.986;11.676;2022-12-29T06:02:51;3.10;;;2.60;;
15218;SDS011;15623;53.986;11.676;2022-12-29T06:05:19;3.77;;;3.20;;
15218;SDS011;15623;53.986;11.676;2022-12-29T06:08:09;2.67;;;2.47;;
15218;SDS011;15623;53.986;11.676;2022-12-29T06:10:36;2.40;;;2.30;;
15218;SDS011;15623;53.986;11.676;2022-12-29T06:13:11;3.20;;;2.70;;
15218;SDS011;15623;53.986;11.676;2022-12-29T06:16:28;2.67;;;2.57;;
15218;SDS011;15623;53.986;11.676;2022-12-29T06:18:58;2.93;;;2.73;;
15218;SDS011;15623;53.986;11.676;2022-12-29T06:21:26;3.10;;;2.90;;
15218;SDS011;15623;53.986;11.676;2022-12-29T06:23:55;3.00;;;2.80;;
15218;SDS011;15623;53.986;11.676;2022-12-29T06:26:23;2.90;;;2.70;;
15218;SDS011;15623;53.986;11.676;2022-12-29T06:47:20;3.67;;;3.37;;
15218;SDS011;15623;53.986;11.676;2022-12-29T06:50:17;3.70;;;3.40;;
15218;SDS011;15623;53.986;11.676;2022-12-29T06:55:11;4.20;;;3.33;;
15218;SDS011;15623;53.986;11.676;2022-12-29T07:01:10;3.70;;;3.50;;
15218;SDS011;15623;53.986;11.676;2022-12-29T07:03:42;4.17;;;3.40;;
15218;SDS011;15623;53.986;11.676;2022-12-29T07:06:23;2.93;;;2.73;;
15218;SDS011;15623;53.986;11.676;2022-12-29T07:09:10;2.60;;;2.47;;
15218;SDS011;15623;53.986;11.676;2022-12-29T07:14:39;3.87;;;2.50;;
15218;SDS011;15623;53.986;11.676;2022-12-29T07:17:07;2.60;;;2.20;;
15218;SDS011;15623;53.986;11.676;2022-12-29T07:19:48;2.20;;;2.00;;
15218;SDS011;15623;53.986;11.676;2022-12-29T07:22:20;8.10;;;4.50;;
15218;SDS011;15623;53.986;11.676;2022-12-29T07:24:51;4.37;;;3.77;;
15218;SDS011;15623;53.986;11.676;2022-12-29T07:27:29;2.70;;;2.43;;
15218;SDS011;15623;53.986;11.676;2022-12-29T07:30:15;1.97;;;1.83;;
15218;SDS011;15623;53.986;11.676;2022-12-29T07:32:43;1.83;;;1.73;;
15218;SDS011;15623;53.986;11.676;2022-12-29T07:35:23;2.00;;;1.90;;
15218;SDS011;15623;53.986;11.676;2022-12-29T07:37:50;1.90;;;1.80;;
15218;SDS011;15623;53.986;11.676;2022-12-29T07:40:20;2.10;;;2.00;;
15218;SDS011;15623;53.986;11.676;2022-12-29T07:42:47;1.90;;;1.80;;
15218;SDS011;15623;53.986;11.676;2022-12-29T07:45:19;1.83;;;1.73;;
15218;SDS011;15623;53.986;11.676;2022-12-29T07:47:47;1.97;;;1.70;;
15218;SDS011;15623;53.986;11.676;2022-12-29T07:50:15;1.90;;;1.80;;
15218;SDS011;15623;53.986;11.676;2022-12-29T07:52:47;1.90;;;1.80;;
15218;SDS011;15623;53.986;11.676;2022-12-29T07:55:14;2.00;;;1.90;;
15218;SDS011;15623;53.986;11.676;2022-12-29T07:57:44;1.90;;;1.80;;
15218;SDS011;15623;53.986;11.676;2022-12-29T08:00:12;1.70;;;1.60;;
15218;SDS011;15623;53.986;11.676;2022-12-29T08:02:40;1.90;;;1.80;;
15218;SDS011;15623;53.986;11.676;2022-12-29T08:05:07;4.53;;;1.90;;
15218;SDS011;15623;53.986;11.676;2022-12-29T08:07:35;2.03;;;1.90;;
15218;SDS011;15623;53.986;11.676;2022-12-29T08:10:04;1.60;;;1.50;;
15218;SDS011;15623;53.986;11.676;2022-12-29T08:12:32;1.50;;;1.40;;
15218;SDS011;15623;53.986;11.676;2022-12-29T08:14:59;1.43;;;1.30;;
15218;SDS011;15623;53.986;11.676;2022-12-29T08:17:27;1.90;;;1.80;;
15218;SDS011;15623;53.986;11.676;2022-12-29T08:19:54;1.50;;;1.40;;
15218;SDS011;15623;53.986;11.676;2022-12-29T08:22:22;1.40;;;1.40;;
15218;SDS011;15623;53.986;11.676;2022-12-29T08:24:50;1.60;;;1.50;;
15218;SDS011;15623;53.986;11.676;2022-12-29T08:27:18;1.60;;;1.50;;
15218;SDS011;15623;53.986;11.676;2022-12-29T08:29:46;1.70;;;1.60;;
15218;SDS011;15623;53.986;11.676;2022-12-29T08:32:13;1.93;;;1.70;;
15218;SDS011;15623;53.986;11.676;2022-12-29T08:34:41;1.70;;;1.60;;
15218;SDS011;15623;53.986;11.676;2022-12-29T08:37:08;1.80;;;1.70;;
15218;SDS011;15623;53.986;11.676;2022-12-29T08:39:35;2.50;;;1.80;;
15218;SDS011;15623;53.986;11.676;2022-12-29T08:42:04;2.10;;;1.90;;
15218;SDS011;15623;53.986;11.676;2022-12-29T08:44:33;2.00;;;1.90;;
15218;SDS011;15623;53.986;11.676;2022-12-29T08:47:00;1.87;;;1.73;;
15218;SDS011;15623;53.986;11.676;2022-12-29T08:49:28;2.10;;;1.90;;
15218;SDS011;15623;53.986;11.676;2022-12-29T08:55:04;1.87;;;1.70;;
15218;SDS011;15623;53.986;11.676;2022-12-29T08:57:32;2.03;;;1.73;;
15218;SDS011;15623;53.986;11.676;2022-12-29T09:00:03;1.73;;;1.63;;
15218;SDS011;15623;53.986;11.676;2022-12-29T09:02:57;3.60;;;1.80;;
15218;SDS011;15623;53.986;11.676;2022-12-29T09:05:24;1.70;;;1.60;;
15218;SDS011;15623;53.986;11.676;2022-12-29T09:07:54;1.50;;;1.33;;
15218;SDS011;15623;53.986;11.676;2022-12-29T09:10:27;1.73;;;1.63;;
15218;SDS011;15623;53.986;11.676;2022-12-29T09:13:05;1.67;;;1.57;;
15218;SDS011;15623;53.986;11.676;2022-12-29T09:25:17;1.40;;;1.30;;
15218;SDS011;15623;53.986;11.676;2022-12-29T09:30:36;3.20;;;1.83;;
15218;SDS011;15623;53.986;11.676;2022-12-29T09:36:26;1.63;;;1.00;;
15218;SDS011;15623;53.986;11.676;2022-12-29T09:38:58;1.57;;;1.00;;
15218;SDS011;15623;53.986;11.676;2022-12-29T09:47:08;1.10;;;0.80;;
15218;SDS011;15623;53.986;11.676;2022-12-29T09:49:42;0.83;;;0.70;;
15218;SDS011;15623;53.986;11.676;2022-12-29T09:52:25;2.03;;;0.87;;
15218;SDS011;15623;53.986;11.676;2022-12-29T09:55:02;0.80;;;0.80;;
15218;SDS011;15623;53.986;11.676;2022-12-29T09:57:33;1.80;;;1.00;;
15218;SDS011;15623;53.986;11.676;2022-12-29T10:00:22;1.47;;;0.90;;
15218;SDS011;15623;53.986;11.676;2022-12-29T10:02:54;1.40;;;0.83;;
15218;SDS011;15623;53.986;11.676;2022-12-29T10:08:44;1.00;;;0.77;;
15218;SDS011;15623;53.986;11.676;2022-12-29T10:11:28;1.23;;;0.87;;
15218;SDS011;15623;53.986;11.676;2022-12-29T10:14:36;0.83;;;0.83;;
15218;SDS011;15623;53.986;11.676;2022-12-29T10:25:39;0.77;;;0.77;;
15218;SDS011;15623;53.986;11.676;2022-12-29T10:28:10;1.33;;;0.80;;
15218;SDS011;15623;53.986;11.676;2022-12-29T10:30:57;2.67;;;0.80;;
15218;SDS011;15623;53.986;11.676;2022-12-29T10:33:31;1.97;;;0.73;;
15218;SDS011;15623;53.986;11.676;2022-12-29T10:36:02;1.17;;;0.70;;
15218;SDS011;15623;53.986;11.676;2022-12-29T10:38:34;1.13;;;0.70;;
15218;SDS011;15623;53.986;11.676;2022-12-29T10:41:13;1.33;;;0.67;;
15218;SDS011;15623;53.986;11.676;2022-12-29T10:43:43;1.43;;;0.90;;
15218;SDS011;15623;53.986;11.676;2022-12-29T10:46:12;1.87;;;0.80;;
15218;SDS011;15623;53.986;11.676;2022-12-29T10:48:40;0.93;;;0.70;;
15218;SDS011;15623;53.986;11.676;2022-12-29T10:51:11;1.43;;;0.93;;
15218;SDS011;15623;53.986;11.676;2022-12-29T10:53:45;1.30;;;0.90;;
15218;SDS011;15623;53.986;11.676;2022-12-29T10:56:17;2.30;;;0.87;;
15218;SDS011;15623;53.986;11.676;2022-12-29T10:58:48;1.83;;;0.90;;
15218;SDS011;15623;53.986;11.676;2022-12-29T11:01:16;0.97;;;0.57;;
15218;SDS011;15623;53.986;11.676;2022-12-29T11:03:48;0.87;;;0.70;;
15218;SDS011;15623;53.986;11.676;2022-12-29T11:06:18;4.40;;;0.70;;
15218;SDS011;15623;53.986;11.676;2022-12-29T11:08:58;1.53;;;0.70;;
15218;SDS011;15623;53.986;11.676;2022-12-29T11:11:32;1.00;;;0.73;;
15218;SDS011;15623;53.986;11.676;2022-12-29T11:14:02;1.10;;;0.90;;
15218;SDS011;15623;53.986;11.676;2022-12-29T11:16:30;1.23;;;0.70;;
15218;SDS011;15623;53.986;11.676;2022-12-29T11:18:59;3.63;;;0.90;;
15218;SDS011;15623;53.986;11.676;2022-12-29T11:21:28;2.63;;;0.90;;
15218;SDS011;15623;53.986;11.676;2022-12-29T11:23:58;3.30;;;1.00;;
15218;SDS011;15623;53.986;11.676;2022-12-29T11:26:28;2.03;;;1.03;;
15218;SDS011;15623;53.986;11.676;2022-12-29T11:29:20;2.13;;;0.83;;
15218;SDS011;15623;53.986;11.676;2022-12-29T11:31:48;1.60;;;0.80;;
15218;SDS011;15623;53.986;11.676;2022-12-29T11:34:17;2.90;;;0.80;;
15218;SDS011;15623;53.986;11.676;2022-12-29T11:36:45;2.67;;;0.70;;
15218;SDS011;15623;53.986;11.676;2022-12-29T11:39:33;1.75;;;0.77;;
15218;SDS011;15623;53.986;11.676;2022-12-29T11:42:02;2.60;;;0.70;;
15218;SDS011;15623;53.986;11.676;2022-12-29T11:44:38;1.65;;;0.75;;
15218;SDS011;15623;53.986;11.676;2022-12-29T11:47:11;2.13;;;0.60;;
15218;SDS011;15623;53.986;11.676;2022-12-29T11:49:39;1.88;;;0.80;;
15218;SDS011;15623;53.986;11.676;2022-12-29T11:52:07;1.67;;;0.90;;
15218;SDS011;15623;53.986;11.676;2022-12-29T11:54:35;2.93;;;1.00;;
15218;SDS011;15623;53.986;11.676;2022-12-29T11:57:10;3.63;;;1.00;;
15218;SDS011;15623;53.986;11.676;2022-12-29T11:59:40;3.03;;;0.90;;
15218;SDS011;15623;53.986;11.676;2022-12-29T12:04:56;2.87;;;1.00;;
15218;SDS011;15623;53.986;11.676;2022-12-29T12:07:30;3.60;;;1.07;;
15218;SDS011;15623;53.986;11.676;2022-12-29T12:10:03;2.20;;;1.10;;
15218;SDS011;15623;53.986;11.676;2022-12-29T12:12:44;4.00;;;1.20;;
15218;SDS011;15623;53.986;11.676;2022-12-29T12:15:29;2.73;;;1.10;;
15218;SDS011;15623;53.986;11.676;2022-12-29T12:18:00;5.00;;;1.20;;
15218;SDS011;15623;53.986;11.676;2022-12-29T12:20:45;6.70;;;1.23;;
15218;SDS011;15623;53.986;11.676;2022-12-29T12:23:14;3.83;;;1.10;;
15218;SDS011;15623;53.986;11.676;2022-12-29T12:25:46;7.30;;;1.10;;
15218;SDS011;15623;53.986;11.676;2022-12-29T12:28:19;2.40;;;1.27;;
15218;SDS011;15623;53.986;11.676;2022-12-29T12:30:50;2.97;;;1.13;;
15218;SDS011;15623;53.986;11.676;2022-12-29T12:33:24;5.23;;;1.20;;
15218;SDS011;15623;53.986;11.676;2022-12-29T12:36:00;3.20;;;1.40;;
15218;SDS011;15623;53.986;11.676;2022-12-29T12:38:37;3.43;;;1.17;;
15218;SDS011;15623;53.986;11.676;2022-12-29T12:41:08;3.20;;;1.03;;
15218;SDS011;15623;53.986;11.676;2022-12-29T12:43:39;5.20;;;1.50;;
15218;SDS011;15623;53.986;11.676;2022-12-29T12:46:30;3.80;;;1.20;;
15218;SDS011;15623;53.986;11.676;2022-12-29T12:49:04;3.80;;;1.20;;
15218;SDS011;15623;53.986;11.676;2022-12-29T12:51:40;3.97;;;1.20;;
15218;SDS011;15623;53.986;11.676;2022-12-29T12:54:13;3.43;;;1.03;;
15218;SDS011;15623;53.986;11.676;2022-12-29T12:56:52;3.47;;;0.90;;
15218;SDS011;15623;53.986;11.676;2022-12-29T13:02:22;3.20;;;1.30;;
15218;SDS011;15623;53.986;11.676;2022-12-29T13:05:00;3.47;;;1.03;;
15218;SDS011;15623;53.986;11.676;2022-12-29T13:07:34;10.40;;;1.87;;
15218;SDS011;15623;53.986;11.676;2022-12-29T13:10:14;2.00;;;0.83;;
15218;SDS011;15623;53.986;11.676;2022-12-29T13:12:48;2.43;;;1.03;;
15218;SDS011;15623;53.986;11.676;2022-12-29T13:15:22;1.50;;;0.90;;
15218;SDS011;15623;53.986;11.676;2022-12-29T13:18:02;4.17;;;1.07;;
15218;SDS011;15623;53.986;11.676;2022-12-29T13:20:36;1.93;;;0.60;;
15218;SDS011;15623;53.986;11.676;2022-12-29T13:23:08;3.67;;;1.20;;
15218;SDS011;15623;53.986;11.676;2022-12-29T13:25:42;3.07;;;0.90;;
15218;SDS011;15623;53.986;11.676;2022-12-29T13:28:16;3.60;;;0.90;;
15218;SDS011;15623;53.986;11.676;2022-12-29T13:30:51;3.90;;;1.00;;
15218;SDS011;15623;53.986;11.676;2022-12-29T13:33:23;3.53;;;1.10;;
15218;SDS011;15623;53.986;11.676;2022-12-29T13:36:05;3.27;;;1.10;;
15218;SDS011;15623;53.986;11.676;2022-12-29T13:38:43;2.93;;;1.00;;
15218;SDS011;15623;53.986;11.676;2022-12-29T13:41:16;3.83;;;1.10;;
15218;SDS011;15623;53.986;11.676;2022-12-29T13:43:46;3.80;;;1.23;;
15218;SDS011;15623;53.986;11.676;2022-12-29T13:46:18;4.03;;;1.37;;
15218;SDS011;15623;53.986;11.676;2022-12-29T13:48:49;2.57;;;1.17;;
15218;SDS011;15623;53.986;11.676;2022-12-29T13:51:18;4.10;;;1.23;;
15218;SDS011;15623;53.986;11.676;2022-12-29T13:53:52;2.37;;;1.03;;
15218;SDS011;15623;53.986;11.676;2022-12-29T13:56:23;4.17;;;1.43;;
15218;SDS011;15623;53.986;11.676;2022-12-29T13:58:53;6.47;;;1.40;;
15218;SDS011;15623;53.986;11.676;2022-12-29T14:01:27;5.77;;;1.43;;
15218;SDS011;15623;53.986;11.676;2022-12-29T14:03:59;5.50;;;1.67;;
15218;SDS011;15623;53.986;11.676;2022-12-29T14:06:29;2.87;;;1.17;;
15218;SDS011;15623;53.986;11.676;2022-12-29T14:08:58;4.27;;;1.23;;
15218;SDS011;15623;53.986;11.676;2022-12-29T14:11:29;3.67;;;1.30;;
15218;SDS011;15623;53.986;11.676;2022-12-29T14:13:58;4.83;;;1.27;;
15218;SDS011;15623;53.986;11.676;2022-12-29T14:16:27;5.67;;;1.20;;
15218;SDS011;15623;53.986;11.676;2022-12-29T14:18:56;4.13;;;1.30;;
15218;SDS011;15623;53.986;11.676;2022-12-29T14:21:25;2.43;;;1.00;;
15218;SDS011;15623;53.986;11.676;2022-12-29T14:26:49;4.33;;;1.60;;
15218;SDS011;15623;53.986;11.676;2022-12-29T14:38:06;5.90;;;1.60;;
15218;SDS011;15623;53.986;11.676;2022-12-29T14:40:34;2.57;;;1.40;;
15218;SDS011;15623;53.986;11.676;2022-12-29T14:43:02;3.37;;;1.20;;
15218;SDS011;15623;53.986;11.676;2022-12-29T14:45:40;5.90;;;1.30;;
15218;SDS011;15623;53.986;11.676;2022-12-29T14:48:20;4.03;;;1.30;;
15218;SDS011;15623;53.986;11.676;2022-12-29T14:50:48;6.63;;;1.73;;
15218;SDS011;15623;53.986;11.676;2022-12-29T14:55:59;5.57;;;1.40;;
15218;SDS011;15623;53.986;11.676;2022-12-29T14:58:27;4.60;;;2.20;;
15218;SDS011;15623;53.986;11.676;2022-12-29T15:00:55;2.80;;;1.23;;
15218;SDS011;15623;53.986;11.676;2022-12-29T15:03:23;5.47;;;1.30;;
15218;SDS011;15623;53.986;11.676;2022-12-29T15:05:51;3.80;;;1.00;;
15218;SDS011;15623;53.986;11.676;2022-12-29T15:08:19;3.23;;;1.17;;
15218;SDS011;15623;53.986;11.676;2022-12-29T15:10:51;3.07;;;1.10;;
15218;SDS011;15623;53.986;11.676;2022-12-29T15:13:23;3.73;;;1.17;;
15218;SDS011;15623;53.986;11.676;2022-12-29T15:15:51;4.47;;;1.30;;
15218;SDS011;15623;53.986;11.676;2022-12-29T15:18:25;2.33;;;1.47;;
15218;SDS011;15623;53.986;11.676;2022-12-29T15:20:57;3.13;;;1.53;;
15218;SDS011;15623;53.986;11.676;2022-12-29T15:23:28;6.07;;;2.87;;
15218;SDS011;15623;53.986;11.676;2022-12-29T15:25:56;4.70;;;1.90;;
15218;SDS011;15623;53.986;11.676;2022-12-29T15:28:37;5.90;;;1.60;;
15218;SDS011;15623;53.986;11.676;2022-12-29T15:31:28;4.63;;;1.80;;
15218;SDS011;15623;53.986;11.676;2022-12-29T15:34:02;4.57;;;1.60;;
15218;SDS011;15623;53.986;11.676;2022-12-29T15:36:44;6.07;;;2.20;;
15218;SDS011;15623;53.986;11.676;2022-12-29T15:39:27;1.77;;;1.00;;
15218;SDS011;15623;53.986;11.676;2022-12-29T15:41:59;2.43;;;1.20;;
15218;SDS011;15623;53.986;11.676;2022-12-29T15:44:47;3.57;;;0.90;;
15218;SDS011;15623;53.986;11.676;2022-12-29T15:47:49;2.57;;;1.00;;
15218;SDS011;15623;53.986;11.676;2022-12-29T15:50:26;3.37;;;1.30;;
15218;SDS011;15623;53.986;11.676;2022-12-29T15:52:54;7.23;;;1.50;;
15218;SDS011;15623;53.986;11.676;2022-12-29T15:55:24;6.00;;;1.83;;
15218;SDS011;15623;53.986;11.676;2022-12-29T15:57:55;2.30;;;1.37;;
15218;SDS011;15623;53.986;11.676;2022-12-29T16:00:27;2.93;;;1.43;;
15218;SDS011;15623;53.986;11.676;2022-12-29T16:02:59;4.03;;;1.40;;
15218;SDS011;15623;53.986;11.676;2022-12-29T16:05:37;4.77;;;1.10;;
15218;SDS011;15623;53.986;11.676;2022-12-29T16:08:37;5.37;;;1.30;;
15218;SDS011;15623;53.986;11.676;2022-12-29T16:11:07;3.13;;;1.17;;
15218;SDS011;15623;53.986;11.676;2022-12-29T16:13:44;3.30;;;1.10;;
15218;SDS011;15623;53.986;11.676;2022-12-29T16:16:16;2.37;;;1.33;;
15218;SDS011;15623;53.986;11.676;2022-12-29T16:18:54;5.47;;;1.63;;
15218;SDS011;15623;53.986;11.676;2022-12-29T16:21:32;2.70;;;1.80;;
15218;SDS011;15623;53.986;11.676;2022-12-29T16:24:01;4.43;;;1.70;;
15218;SDS011;15623;53.986;11.676;2022-12-29T16:26:30;3.07;;;1.93;;
15218;SDS011;15623;53.986;11.676;2022-12-29T16:29:05;4.73;;;1.77;;
15218;SDS011;15623;53.986;11.676;2022-12-29T16:31:50;3.93;;;1.80;;
15218;SDS011;15623;53.986;11.676;2022-12-29T16:34:25;3.80;;;2.20;;
15218;SDS011;15623;53.986;11.676;2022-12-29T16:36:53;4.27;;;2.10;;
15218;SDS011;15623;53.986;11.676;2022-12-29T16:39:31;5.47;;;2.37;;
15218;SDS011;15623;53.986;11.676;2022-12-29T16:41:59;5.90;;;2.00;;
15218;SDS011;15623;53.986;11.676;2022-12-29T16:44:29;4.90;;;2.67;;
15218;SDS011;15623;53.986;11.676;2022-12-29T16:50:09;4.83;;;2.00;;
15218;SDS011;15623;53.986;11.676;2022-12-29T16:52:37;3.43;;;1.70;;
15218;SDS011;15623;53.986;11.676;2022-12-29T16:55:05;5.43;;;2.20;;
15218;SDS011;15623;53.986;11.676;2022-12-29T16:57:33;4.23;;;1.60;;
15218;SDS011;15623;53.986;11.676;2022-12-29T17:00:05;3.83;;;1.93;;
15218;SDS011;15623;53.986;11.676;2022-12-29T17:02:32;4.53;;;1.60;;
15218;SDS011;15623;53.986;11.676;2022-12-29T17:05:12;5.57;;;1.40;;
15218;SDS011;15623;53.986;11.676;2022-12-29T17:07:40;3.27;;;1.30;;
15218;SDS011;15623;53.986;11.676;2022-12-29T17:10:08;4.77;;;1.53;;
15218;SDS011;15623;53.986;11.676;2022-12-29T17:12:35;5.53;;;1.83;;
15218;SDS011;15623;53.986;11.676;2022-12-29T17:15:03;2.30;;;1.50;;
15218;SDS011;15623;53.986;11.676;2022-12-29T17:17:33;4.67;;;1.60;;
15218;SDS011;15623;53.986;11.676;2022-12-29T17:20:03;4.97;;;1.93;;
15218;SDS011;15623;53.986;11.676;2022-12-29T17:22:32;6.93;;;2.13;;
15218;SDS011;15623;53.986;11.676;2022-12-29T17:25:01;4.07;;;1.80;;
15218;SDS011;15623;53.986;11.676;2022-12-29T17:27:30;5.43;;;1.97;;
15218;SDS011;15623;53.986;11.676;2022-12-29T17:30:01;4.80;;;2.20;;
15218;SDS011;15623;53.986;11.676;2022-12-29T17:32:31;5.50;;;2.57;;
15218;SDS011;15623;53.986;11.676;2022-12-29T17:35:02;5.23;;;2.50;;
15218;SDS011;15623;53.986;11.676;2022-12-29T17:37:37;5.57;;;2.73;;
15218;SDS011;15623;53.986;11.676;2022-12-29T17:40:05;5.97;;;2.90;;
15218;SDS011;15623;53.986;11.676;2022-12-29T17:42:42;5.40;;;2.53;;
15218;SDS011;15623;53.986;11.676;2022-12-29T17:45:12;6.50;;;3.10;;
15218;SDS011;15623;53.986;11.676;2022-12-29T17:47:40;5.40;;;3.20;;
15218;SDS011;15623;53.986;11.676;2022-12-29T17:50:10;7.77;;;3.07;;
15218;SDS011;15623;53.986;11.676;2022-12-29T17:52:39;5.30;;;3.00;;
15218;SDS011;15623;53.986;11.676;2022-12-29T17:55:08;6.57;;;3.40;;
15218;SDS011;15623;53.986;11.676;2022-12-29T17:57:40;6.03;;;2.70;;
15218;SDS011;15623;53.986;11.676;2022-12-29T18:00:08;5.70;;;2.43;;
15218;SDS011;15623;53.986;11.676;2022-12-29T18:02:40;5.87;;;2.47;;
15218;SDS011;15623;53.986;11.676;2022-12-29T18:05:08;5.93;;;1.93;;
15218;SDS011;15623;53.986;11.676;2022-12-29T18:07:41;6.43;;;3.03;;
15218;SDS011;15623;53.986;11.676;2022-12-29T18:10:08;5.43;;;2.40;;
15218;SDS011;15623;53.986;11.676;2022-12-29T18:12:36;4.80;;;2.53;;
15218;SDS011;15623;53.986;11.676;2022-12-29T18:15:05;4.17;;;2.10;;
15218;SDS011;15623;53.986;11.676;2022-12-29T18:17:32;4.07;;;2.20;;
15218;SDS011;15623;53.986;11.676;2022-12-29T18:19:59;5.47;;;2.50;;
15218;SDS011;15623;53.986;11.676;2022-12-29T18:22:28;5.63;;;2.50;;
15218;SDS011;15623;53.986;11.676;2022-12-29T18:25:01;5.77;;;2.10;;
15218;SDS011;15623;53.986;11.676;2022-12-29T18:27:30;4.17;;;1.80;;
15218;SDS011;15623;53.986;11.676;2022-12-29T18:29:59;7.47;;;2.33;;
15218;SDS011;15623;53.986;11.676;2022-12-29T18:32:33;8.90;;;2.20;;
15218;SDS011;15623;53.986;11.676;2022-12-29T18:35:19;5.10;;;1.90;;
15218;SDS011;15623;53.986;11.676;2022-12-29T18:37:53;4.87;;;2.30;;
15218;SDS011;15623;53.986;11.676;2022-12-29T18:40:34;4.93;;;2.33;;
15218;SDS011;15623;53.986;11.676;2022-12-29T18:43:18;4.30;;;2.10;;
15218;SDS011;15623;53.986;11.676;2022-12-29T18:45:50;4.67;;;2.33;;
15218;SDS011;15623;53.986;11.676;2022-12-29T18:48:18;5.63;;;2.43;;
15218;SDS011;15623;53.986;11.676;2022-12-29T18:50:47;3.00;;;2.30;;
15218;SDS011;15623;53.986;11.676;2022-12-29T18:53:16;11.97;;;3.57;;
15218;SDS011;15623;53.986;11.676;2022-12-29T18:55:45;4.87;;;2.20;;
15218;SDS011;15623;53.986;11.676;2022-12-29T18:58:23;3.70;;;2.23;;
15218;SDS011;15623;53.986;11.676;2022-12-29T19:00:53;4.33;;;2.27;;
15218;SDS011;15623;53.986;11.676;2022-12-29T19:03:20;5.10;;;2.20;;
15218;SDS011;15623;53.986;11.676;2022-12-29T19:05:51;6.00;;;2.33;;
15218;SDS011;15623;53.986;11.676;2022-12-29T19:08:25;5.27;;;2.27;;
15218;SDS011;15623;53.986;11.676;2022-12-29T19:10:54;3.80;;;2.20;;
15218;SDS011;15623;53.986;11.676;2022-12-29T19:13:22;5.30;;;2.20;;
15218;SDS011;15623;53.986;11.676;2022-12-29T19:15:58;5.03;;;2.60;;
15218;SDS011;15623;53.986;11.676;2022-12-29T19:18:26;6.77;;;2.40;;
15218;SDS011;15623;53.986;11.676;2022-12-29T19:20:54;7.70;;;2.80;;
15218;SDS011;15623;53.986;11.676;2022-12-29T19:23:24;5.73;;;2.57;;
15218;SDS011;15623;53.986;11.676;2022-12-29T19:25:52;5.50;;;2.23;;
15218;SDS011;15623;53.986;11.676;2022-12-29T19:28:23;5.40;;;2.80;;
15218;SDS011;15623;53.986;11.676;2022-12-29T19:30:51;6.40;;;2.50;;
15218;SDS011;15623;53.986;11.676;2022-12-29T19:33:20;6.53;;;2.40;;
15218;SDS011;15623;53.986;11.676;2022-12-29T19:35:50;5.33;;;2.70;;
15218;SDS011;15623;53.986;11.676;2022-12-29T19:38:18;5.20;;;2.30;;
15218;SDS011;15623;53.986;11.676;2022-12-29T19:40:46;6.97;;;2.80;;
15218;SDS011;15623;53.986;11.676;2022-12-29T19:43:14;4.53;;;2.30;;
15218;SDS011;15623;53.986;11.676;2022-12-29T19:45:43;3.03;;;2.47;;
15218;SDS011;15623;53.986;11.676;2022-12-29T19:48:13;3.67;;;2.33;;
15218;SDS011;15623;53.986;11.676;2022-12-29T19:50:41;7.03;;;2.40;;
15218;SDS011;15623;53.986;11.676;2022-12-29T19:53:09;7.17;;;2.57;;
15218;SDS011;15623;53.986;11.676;2022-12-29T19:55:48;7.60;;;2.47;;
15218;SDS011;15623;53.986;11.676;2022-12-29T19:58:46;6.47;;;2.97;;
15218;SDS011;15623;53.986;11.676;2022-12-29T20:07:49;7.27;;;2.90;;
15218;SDS011;15623;53.986;11.676;2022-12-29T20:13:24;6.20;;;2.87;;
15218;SDS011;15623;53.986;11.676;2022-12-29T20:16:03;6.43;;;3.10;;
15218;SDS011;15623;53.986;11.676;2022-12-29T20:18:31;7.03;;;2.77;;
15218;SDS011;15623;53.986;11.676;2022-12-29T20:21:00;6.43;;;2.60;;
15218;SDS011;15623;53.986;11.676;2022-12-29T20:23:29;8.57;;;2.83;;
15218;SDS011;15623;53.986;11.676;2022-12-29T20:25:57;5.17;;;3.20;;
15218;SDS011;15623;53.986;11.676;2022-12-29T20:28:26;5.83;;;3.10;;
15218;SDS011;15623;53.986;11.676;2022-12-29T20:30:54;4.87;;;2.90;;
15218;SDS011;15623;53.986;11.676;2022-12-29T20:33:24;5.43;;;3.23;;
15218;SDS011;15623;53.986;11.676;2022-12-29T20:36:13;6.13;;;3.23;;
15218;SDS011;15623;53.986;11.676;2022-12-29T20:41:28;6.30;;;3.57;;
15218;SDS011;15623;53.986;11.676;2022-12-29T20:43:57;8.70;;;3.50;;
15218;SDS011;15623;53.986;11.676;2022-12-29T20:46:30;8.60;;;3.70;;
15218;SDS011;15623;53.986;11.676;2022-12-29T20:48:57;9.57;;;3.50;;
15218;SDS011;15623;53.986;11.676;2022-12-29T20:51:25;7.27;;;3.60;;
15218;SDS011;15623;53.986;11.676;2022-12-29T20:53:56;7.67;;;3.13;;
15218;SDS011;15623;53.986;11.676;2022-12-29T20:59:24;10.07;;;3.40;;
15218;SDS011;15623;53.986;11.676;2022-12-29T21:01:52;11.37;;;4.10;;
15218;SDS011;15623;53.986;11.676;2022-12-29T21:04:20;5.43;;;3.43;;
15218;SDS011;15623;53.986;11.676;2022-12-29T21:06:47;6.50;;;3.30;;
15218;SDS011;15623;53.986;11.676;2022-12-29T21:09:15;6.60;;;3.10;;
15218;SDS011;15623;53.986;11.676;2022-12-29T21:11:44;7.00;;;3.33;;
15218;SDS011;15623;53.986;11.676;2022-12-29T21:14:12;9.57;;;3.70;;
15218;SDS011;15623;53.986;11.676;2022-12-29T21:16:41;6.90;;;3.00;;
15218;SDS011;15623;53.986;11.676;2022-12-29T21:19:11;9.00;;;3.30;;
15218;SDS011;15623;53.986;11.676;2022-12-29T21:21:40;6.60;;;2.97;;
15218;SDS011;15623;53.986;11.676;2022-12-29T21:24:18;8.30;;;3.00;;
15218;SDS011;15623;53.986;11.676;2022-12-29T21:26:46;6.03;;;2.80;;